createdAt,value
2022-10-15T00:00:10.514Z,2.72
2022-10-15T00:02:42.436Z,3.25
2022-10-15T00:05:14.343Z,3.00
2022-10-15T00:07:46.157Z,3.22
2022-10-15T00:10:18.642Z,2.85
2022-10-15T00:12:50.812Z,3.10
2022-10-15T00:15:22.783Z,2.80
2022-10-15T00:17:54.915Z,2.85
2022-10-15T00:20:28.437Z,2.17
2022-10-15T00:25:49.837Z,2.52
2022-10-15T00:28:21.985Z,2.45
2022-10-15T00:30:54.231Z,2.85
2022-10-15T00:33:26.477Z,2.80
2022-10-15T00:36:03.438Z,2.62
2022-10-15T00:38:35.994Z,2.95
2022-10-15T00:41:10.377Z,3.17
2022-10-15T00:43:51.051Z,2.77
2022-10-15T00:46:25.895Z,2.62
2022-10-15T00:49:00.751Z,3.00
2022-10-15T00:51:35.679Z,3.15
2022-10-15T00:54:08.834Z,2.72
2022-10-15T00:56:42.796Z,2.62
2022-10-15T00:59:17.187Z,3.02
2022-10-15T01:01:50.379Z,3.10
2022-10-15T01:04:23.458Z,2.55
2022-10-15T01:06:55.691Z,2.47
2022-10-15T01:09:28.027Z,3.37
2022-10-15T01:12:00.195Z,2.90
2022-10-15T01:14:38.165Z,3.00
2022-10-15T01:17:41.761Z,2.58
2022-10-15T01:20:31.775Z,3.08
2022-10-15T01:23:16.998Z,3.20
2022-10-15T01:26:00.893Z,2.87
2022-10-15T01:29:01.332Z,2.62
2022-10-15T01:31:36.798Z,2.70
2022-10-15T01:34:34.197Z,2.45
2022-10-15T01:37:14.976Z,2.83
2022-10-15T01:39:50.412Z,2.50
2022-10-15T01:42:31.446Z,2.95
2022-10-15T01:45:06.510Z,2.75
2022-10-15T01:47:43.213Z,2.25
2022-10-15T01:50:17.943Z,2.83
2022-10-15T01:52:52.142Z,2.92
2022-10-15T01:55:26.583Z,2.52
2022-10-15T01:58:01.335Z,2.42
2022-10-15T02:00:33.359Z,2.87
2022-10-15T02:03:05.999Z,2.42
2022-10-15T02:05:40.983Z,2.40
2022-10-15T02:08:30.819Z,2.67
2022-10-15T02:11:08.509Z,3.10
2022-10-15T02:14:04.425Z,2.75
2022-10-15T02:16:45.919Z,2.58
2022-10-15T02:19:30.062Z,2.30
2022-10-15T02:22:24.598Z,3.12
2022-10-15T02:25:05.245Z,2.70
2022-10-15T02:27:38.571Z,2.75
2022-10-15T02:30:11.932Z,2.67
2022-10-15T02:32:46.184Z,2.80
2022-10-15T02:35:19.859Z,2.80
2022-10-15T02:37:55.026Z,2.85
2022-10-15T02:40:31.945Z,2.75
2022-10-15T02:43:07.152Z,2.60
2022-10-15T02:45:39.447Z,2.40
2022-10-15T02:48:11.472Z,2.83
2022-10-15T02:50:43.982Z,2.70
2022-10-15T02:53:17.605Z,2.72
2022-10-15T02:55:49.871Z,3.10
2022-10-15T02:58:22.313Z,2.58
2022-10-15T03:00:54.705Z,3.20
2022-10-15T03:03:26.812Z,2.55
2022-10-15T03:05:59.034Z,2.67
2022-10-15T03:08:31.213Z,2.45
2022-10-15T03:11:04.901Z,2.72
2022-10-15T03:13:41.377Z,3.55
2022-10-15T03:16:13.499Z,2.80
2022-10-15T03:18:46.088Z,2.70
2022-10-15T03:21:18.308Z,2.52
2022-10-15T03:23:50.869Z,2.90
2022-10-15T03:26:24.552Z,2.60
2022-10-15T03:28:56.516Z,3.15
2022-10-15T03:31:45.123Z,2.60
2022-10-15T03:34:17.234Z,3.58
2022-10-15T03:36:50.138Z,2.85
2022-10-15T03:39:22.421Z,2.67
2022-10-15T03:41:56.226Z,2.90
2022-10-15T03:44:29.767Z,2.58
2022-10-15T03:47:06.497Z,3.08
2022-10-15T03:49:40.018Z,2.35
2022-10-15T03:52:12.474Z,2.50
2022-10-15T03:54:45.256Z,2.45
2022-10-15T03:57:18.456Z,2.80
2022-10-15T03:59:52.031Z,2.20
2022-10-15T04:02:24.873Z,2.65
2022-10-15T04:04:57.605Z,2.65
2022-10-15T04:07:30.100Z,2.52
2022-10-15T04:10:01.964Z,3.02
2022-10-15T04:12:35.590Z,2.50
2022-10-15T04:15:08.115Z,2.85
2022-10-15T04:17:41.732Z,2.70
2022-10-15T04:20:14.046Z,2.60
2022-10-15T04:22:47.722Z,2.60
2022-10-15T04:25:20.048Z,2.20
2022-10-15T04:27:53.404Z,2.50
2022-10-15T04:30:25.477Z,2.42
2022-10-15T04:32:59.177Z,4.20
2022-10-15T04:35:31.750Z,2.52
2022-10-15T04:38:05.798Z,2.33
2022-10-15T04:41:05.414Z,2.22
2022-10-15T04:43:42.156Z,2.12
2022-10-15T04:46:14.930Z,2.98
2022-10-15T04:48:47.176Z,2.27
2022-10-15T04:51:21.687Z,2.55
2022-10-15T04:54:07.440Z,2.30
2022-10-15T04:56:40.356Z,2.22
2022-10-15T04:59:12.621Z,2.92
2022-10-15T05:01:46.824Z,2.37
2022-10-15T05:04:19.490Z,2.70
2022-10-15T05:06:51.536Z,2.10
2022-10-15T05:09:24.211Z,2.08
2022-10-15T05:11:56.412Z,2.72
2022-10-15T05:14:30.158Z,2.52
2022-10-15T05:17:09.495Z,2.62
2022-10-15T05:19:43.368Z,2.40
2022-10-15T05:22:16.994Z,3.17
2022-10-15T05:24:50.908Z,2.65
2022-10-15T05:27:32.381Z,2.40
2022-10-15T05:30:05.252Z,3.08
2022-10-15T05:32:38.858Z,2.35
2022-10-15T05:35:12.550Z,2.90
2022-10-15T05:38:01.621Z,2.90
2022-10-15T05:40:33.666Z,2.70
2022-10-15T05:43:10.159Z,3.45
2022-10-15T05:45:42.164Z,3.25
2022-10-15T05:48:15.193Z,3.02
2022-10-15T05:50:47.319Z,2.27
2022-10-15T05:53:21.198Z,2.30
2022-10-15T05:55:55.543Z,3.00
2022-10-15T06:01:05.161Z,2.65
2022-10-15T06:03:37.730Z,2.80
2022-10-15T06:06:17.679Z,3.87
2022-10-15T06:08:50.585Z,2.40
2022-10-15T06:11:23.450Z,2.65
2022-10-15T06:13:55.702Z,3.45
2022-10-15T06:16:27.843Z,2.62
2022-10-15T06:18:59.992Z,1.87
2022-10-15T06:21:32.194Z,2.40
2022-10-15T06:24:06.339Z,6.58
2022-10-15T06:26:37.896Z,1.98
2022-10-15T06:29:10.973Z,3.72
2022-10-15T06:31:43.070Z,9.23
2022-10-15T06:34:15.231Z,3.10
2022-10-15T06:36:47.251Z,4.95
2022-10-15T06:39:19.157Z,3.20
2022-10-15T06:41:51.529Z,2.70
2022-10-15T06:44:23.983Z,2.62
2022-10-15T06:46:55.944Z,2.65
2022-10-15T06:49:28.147Z,2.65
2022-10-15T06:52:03.550Z,3.50
2022-10-15T06:54:34.215Z,3.02
2022-10-15T06:57:06.460Z,3.20
2022-10-15T06:59:41.258Z,3.50
2022-10-15T07:02:14.398Z,2.95
2022-10-15T07:04:47.059Z,3.47
2022-10-15T07:07:20.872Z,3.00
2022-10-15T07:09:54.659Z,3.40
2022-10-15T07:12:27.042Z,5.15
2022-10-15T07:14:59.207Z,3.42
2022-10-15T07:17:34.610Z,3.30
2022-10-15T07:20:07.994Z,3.40
2022-10-15T07:22:40.083Z,3.02
2022-10-15T07:25:12.298Z,3.30
2022-10-15T07:27:45.503Z,3.90
2022-10-15T07:30:17.755Z,3.58
2022-10-15T07:32:50.333Z,3.80
2022-10-15T07:35:23.229Z,4.03
2022-10-15T07:37:55.607Z,3.75
2022-10-15T07:40:28.146Z,3.77
2022-10-15T07:43:00.905Z,3.05
2022-10-15T07:45:36.507Z,3.67
2022-10-15T07:48:08.610Z,4.30
2022-10-15T07:50:42.366Z,2.70
2022-10-15T07:53:18.051Z,3.52
2022-10-15T07:55:48.652Z,5.00
2022-10-15T07:58:20.844Z,3.95
2022-10-15T08:00:52.803Z,3.60
2022-10-15T08:03:24.966Z,3.83
2022-10-15T08:05:57.041Z,3.40
2022-10-15T08:08:31.228Z,4.25
2022-10-15T08:11:14.641Z,4.20
2022-10-15T08:13:49.096Z,3.87
2022-10-15T08:18:53.755Z,4.67
2022-10-15T08:21:25.988Z,4.75
2022-10-15T08:23:58.178Z,4.03
2022-10-15T08:26:31.844Z,3.53
2022-10-15T08:29:04.175Z,4.03
2022-10-15T08:31:36.115Z,3.87
2022-10-15T08:34:08.724Z,3.90
2022-10-15T08:36:40.606Z,4.33
2022-10-15T08:39:12.785Z,3.45
2022-10-15T08:41:48.338Z,3.87
2022-10-15T08:44:41.432Z,4.75
2022-10-15T08:47:30.994Z,4.30
2022-10-15T08:50:05.899Z,3.30
2022-10-15T08:52:47.060Z,3.00
2022-10-15T08:55:22.312Z,3.08
2022-10-15T08:58:08.206Z,3.30
2022-10-15T09:00:46.445Z,2.85
2022-10-15T09:03:37.921Z,4.45
2022-10-15T09:06:15.985Z,3.90
2022-10-15T09:09:09.102Z,4.62
2022-10-15T09:11:47.485Z,3.98
2022-10-15T09:14:22.617Z,3.47
2022-10-15T09:16:55.119Z,3.85
2022-10-15T09:19:29.655Z,3.30
2022-10-15T09:22:03.330Z,2.90
2022-10-15T09:24:35.535Z,7.92
2022-10-15T09:27:13.173Z,3.10
2022-10-15T09:29:54.876Z,2.83
2022-10-15T09:32:32.652Z,3.42
2022-10-15T09:35:15.308Z,3.42
2022-10-15T09:37:56.187Z,3.52
2022-10-15T09:40:36.688Z,3.35
2022-10-15T09:43:10.321Z,3.02
2022-10-15T09:45:42.599Z,6.55
2022-10-15T09:48:20.027Z,3.55
2022-10-15T09:50:58.183Z,3.72
2022-10-15T09:53:33.349Z,3.65
2022-10-15T09:56:08.863Z,3.30
2022-10-15T09:58:49.580Z,3.72
2022-10-15T10:01:26.502Z,3.22
2022-10-15T10:04:16.480Z,2.77
2022-10-15T10:06:51.513Z,3.27
2022-10-15T10:09:27.481Z,3.40
2022-10-15T10:12:03.767Z,3.20
2022-10-15T10:14:44.165Z,2.58
2022-10-15T10:17:19.109Z,2.62
2022-10-15T10:20:10.244Z,2.50
2022-10-15T10:22:51.270Z,3.90
2022-10-15T10:25:34.041Z,3.25
2022-10-15T10:28:14.549Z,2.85
2022-10-15T10:31:03.464Z,3.35
2022-10-15T10:33:50.154Z,2.90
2022-10-15T10:36:39.487Z,2.42
2022-10-15T10:39:15.498Z,2.65
2022-10-15T10:42:00.737Z,3.20
2022-10-15T10:44:38.694Z,2.65
2022-10-15T10:47:14.071Z,3.35
2022-10-15T10:49:48.190Z,3.20
2022-10-15T10:52:29.121Z,3.25
2022-10-15T10:55:16.356Z,3.65
2022-10-15T10:58:00.331Z,3.27
2022-10-15T11:00:44.927Z,3.40
2022-10-15T11:03:40.880Z,3.60
2022-10-15T11:06:29.233Z,3.77
2022-10-15T11:09:10.023Z,3.42
2022-10-15T11:11:48.444Z,4.00
2022-10-15T11:14:23.350Z,4.28
2022-10-15T11:17:33.299Z,3.45
2022-10-15T11:20:34.474Z,5.83
2022-10-15T11:23:27.289Z,4.00
2022-10-15T11:26:27.156Z,3.90
2022-10-15T11:29:18.462Z,5.70
2022-10-15T11:32:28.445Z,4.58
2022-10-15T11:35:20.227Z,3.87
2022-10-15T11:38:01.674Z,4.22
2022-10-15T11:40:57.559Z,4.62
2022-10-15T11:43:56.799Z,4.00
2022-10-15T11:46:57.193Z,4.72
2022-10-15T11:50:02.165Z,4.05
2022-10-15T11:52:55.368Z,3.95
2022-10-15T11:55:42.366Z,9.08
2022-10-15T11:58:29.197Z,4.17
2022-10-15T12:01:07.166Z,6.97
2022-10-15T12:03:42.152Z,4.70
2022-10-15T12:06:17.277Z,4.85
2022-10-15T12:08:51.173Z,3.65
2022-10-15T12:11:25.944Z,3.90
2022-10-15T12:14:16.144Z,4.03
2022-10-15T12:16:55.464Z,4.10
2022-10-15T12:19:32.223Z,4.22
2022-10-15T12:22:11.894Z,6.92
2022-10-15T12:24:51.761Z,4.37
2022-10-15T12:27:34.253Z,3.87
2022-10-15T12:30:11.121Z,4.28
2022-10-15T12:32:48.877Z,3.75
2022-10-15T12:35:27.148Z,4.20
2022-10-15T12:38:02.640Z,4.85
2022-10-15T12:40:36.716Z,4.67
2022-10-15T12:43:21.544Z,4.33
2022-10-15T12:45:56.413Z,3.45
2022-10-15T12:48:45.430Z,4.92
2022-10-15T12:51:29.099Z,4.10
2022-10-15T12:54:02.790Z,4.33
2022-10-15T12:56:41.815Z,4.55
2022-10-15T12:59:34.444Z,3.72
2022-10-15T13:02:09.755Z,4.12
2022-10-15T13:04:43.112Z,5.08
2022-10-15T13:07:16.406Z,4.20
2022-10-15T13:09:49.293Z,3.72
2022-10-15T13:12:29.930Z,3.60
2022-10-15T13:15:06.209Z,4.22
2022-10-15T13:17:40.282Z,4.33
2022-10-15T13:20:31.703Z,4.70
2022-10-15T13:23:32.787Z,4.65
2022-10-15T13:26:23.789Z,4.60
2022-10-15T13:29:00.386Z,4.33
2022-10-15T13:31:35.127Z,4.58
2022-10-15T13:34:22.246Z,4.03
2022-10-15T13:36:56.677Z,3.85
2022-10-15T13:42:08.703Z,3.67
2022-10-15T13:44:41.293Z,4.33
2022-10-15T13:47:35.398Z,3.75
2022-10-15T13:50:30.952Z,4.15
2022-10-15T13:53:12.457Z,4.10
2022-10-15T13:55:50.589Z,4.20
2022-10-15T13:58:34.952Z,4.87
2022-10-15T14:01:13.028Z,4.33
2022-10-15T14:03:50.395Z,4.08
2022-10-15T14:06:34.614Z,4.50
2022-10-15T14:09:27.449Z,4.17
2022-10-15T14:12:03.355Z,4.42
2022-10-15T14:14:45.153Z,4.03
2022-10-15T14:17:27.913Z,4.28
2022-10-15T14:20:27.491Z,4.12
2022-10-15T14:22:37.249Z,4.30
2022-10-15T14:27:46.770Z,4.08
2022-10-15T14:30:30.719Z,3.58
2022-10-15T14:33:03.262Z,4.00
2022-10-15T14:35:37.721Z,4.37
2022-10-15T14:38:15.483Z,3.90
2022-10-15T14:41:07.436Z,4.10
2022-10-15T14:43:39.922Z,3.85
2022-10-15T14:46:14.774Z,3.83
2022-10-15T14:48:46.902Z,4.87
2022-10-15T14:51:21.686Z,3.77
2022-10-15T14:53:54.964Z,4.65
2022-10-15T14:56:29.886Z,3.92
2022-10-15T14:59:04.100Z,4.30
2022-10-15T15:01:36.636Z,4.25
2022-10-15T15:04:11.967Z,4.03
2022-10-15T15:06:44.162Z,4.25
2022-10-15T15:09:16.500Z,4.78
2022-10-15T15:11:48.798Z,4.08
2022-10-15T15:14:25.781Z,4.60
2022-10-15T15:16:57.713Z,3.90
2022-10-15T15:19:29.935Z,4.35
2022-10-15T15:22:02.353Z,4.37
2022-10-15T15:24:34.355Z,4.50
2022-10-15T15:27:06.569Z,4.22
2022-10-15T15:29:38.645Z,4.00
2022-10-15T15:32:11.577Z,4.33
2022-10-15T15:34:43.541Z,4.08
2022-10-15T15:37:18.347Z,3.98
2022-10-15T15:39:51.138Z,4.17
2022-10-15T15:42:25.958Z,4.50
2022-10-15T15:44:58.567Z,5.20
2022-10-15T15:47:30.886Z,4.53
2022-10-15T15:50:03.091Z,4.62
2022-10-15T15:52:36.685Z,4.37
2022-10-15T15:55:09.950Z,4.50
2022-10-15T15:57:42.350Z,5.08
2022-10-15T16:00:15.339Z,4.47
2022-10-15T16:02:47.395Z,4.80
2022-10-15T16:05:19.609Z,5.12
2022-10-15T16:07:51.805Z,5.17
2022-10-15T16:10:24.125Z,5.45
2022-10-15T16:12:56.542Z,5.70
2022-10-15T16:15:28.985Z,5.10
2022-10-15T16:18:01.152Z,5.50
2022-10-15T16:20:34.829Z,5.35
2022-10-15T16:23:07.010Z,5.08
2022-10-15T16:25:39.031Z,5.70
2022-10-15T16:28:11.224Z,4.85
2022-10-15T16:30:43.308Z,5.03
2022-10-15T16:33:15.209Z,5.00
2022-10-15T16:35:54.523Z,5.08
2022-10-15T16:38:26.557Z,4.65
2022-10-15T16:40:58.501Z,5.03
2022-10-15T16:43:30.611Z,4.97
2022-10-15T16:46:05.653Z,5.30
2022-10-15T16:48:38.722Z,4.85
2022-10-15T16:51:16.284Z,4.87
2022-10-15T16:53:49.168Z,4.22
2022-10-15T16:56:24.217Z,4.60
2022-10-15T16:58:57.207Z,4.70
2022-10-15T17:01:30.569Z,5.03
2022-10-15T17:04:03.072Z,5.77
2022-10-15T17:06:35.000Z,4.83
2022-10-15T17:09:07.228Z,4.53
2022-10-15T17:11:41.762Z,5.95
2022-10-15T17:14:15.623Z,5.05
2022-10-15T17:16:50.339Z,5.30
2022-10-15T17:19:28.899Z,5.67
2022-10-15T17:21:59.015Z,5.10
2022-10-15T17:24:31.217Z,5.00
2022-10-15T17:27:03.713Z,5.25
2022-10-15T17:29:35.856Z,5.15
2022-10-15T17:32:08.005Z,5.50
2022-10-15T17:34:39.957Z,5.37
2022-10-15T17:37:12.138Z,6.03
2022-10-15T17:39:44.122Z,5.00
2022-10-15T17:42:16.380Z,5.25
2022-10-15T17:44:48.453Z,6.70
2022-10-15T17:47:20.498Z,5.30
2022-10-15T17:49:52.507Z,6.22
2022-10-15T17:52:24.447Z,5.05
2022-10-15T17:54:56.641Z,5.33
2022-10-15T17:57:29.235Z,5.15
2022-10-15T18:00:01.300Z,5.70
2022-10-15T18:02:35.399Z,4.97
2022-10-15T18:05:08.055Z,5.00
2022-10-15T18:07:41.755Z,5.03
2022-10-15T18:10:14.831Z,5.00
2022-10-15T18:12:47.031Z,4.78
2022-10-15T18:15:19.321Z,5.20
2022-10-15T18:17:51.315Z,4.28
2022-10-15T18:20:24.256Z,5.00
2022-10-15T18:22:56.561Z,5.15
2022-10-15T18:25:30.370Z,5.33
2022-10-15T18:28:02.551Z,4.78
2022-10-15T18:30:36.003Z,6.05
2022-10-15T18:33:12.389Z,4.78
2022-10-15T18:35:44.497Z,4.87
2022-10-15T18:38:17.276Z,4.33
2022-10-15T18:40:49.292Z,5.33
2022-10-15T18:43:23.027Z,4.30
2022-10-15T18:45:55.190Z,4.78
2022-10-15T18:48:32.142Z,4.35
2022-10-15T18:51:01.507Z,5.35
2022-10-15T18:53:34.779Z,4.97
2022-10-15T18:56:07.639Z,5.03
2022-10-15T18:58:41.161Z,4.45
2022-10-15T19:01:27.988Z,4.50
2022-10-15T19:04:03.158Z,4.90
2022-10-15T19:06:38.181Z,4.70
2022-10-15T19:09:12.880Z,4.22
2022-10-15T19:11:46.998Z,4.42
2022-10-15T19:14:19.099Z,4.60
2022-10-15T19:16:51.717Z,3.98
2022-10-15T19:19:25.505Z,4.08
2022-10-15T19:21:59.481Z,3.95
2022-10-15T19:24:31.603Z,3.58
2022-10-15T19:27:03.809Z,3.72
2022-10-15T19:29:35.973Z,4.50
2022-10-15T19:32:08.017Z,4.03
2022-10-15T19:34:40.307Z,4.50
2022-10-15T19:37:12.268Z,4.15
2022-10-15T19:39:47.711Z,4.37
2022-10-15T19:42:20.268Z,4.10
2022-10-15T19:44:52.194Z,4.03
2022-10-15T19:47:26.024Z,5.17
2022-10-15T19:49:58.122Z,4.75
2022-10-15T19:52:30.112Z,4.30
2022-10-15T19:55:03.378Z,4.62
2022-10-15T19:57:35.027Z,4.53
2022-10-15T20:00:07.604Z,4.90
2022-10-15T20:02:41.415Z,4.25
2022-10-15T20:05:13.409Z,4.60
2022-10-15T20:07:45.489Z,4.90
2022-10-15T20:10:17.464Z,4.67
2022-10-15T20:12:49.458Z,4.42
2022-10-15T20:15:21.497Z,4.15
2022-10-15T20:17:53.330Z,4.37
2022-10-15T20:20:25.339Z,4.20
2022-10-15T20:22:57.205Z,4.08
2022-10-15T20:25:29.421Z,4.17
2022-10-15T20:28:01.257Z,3.72
2022-10-15T20:30:33.381Z,4.30
2022-10-15T20:33:05.439Z,4.22
2022-10-15T20:35:38.415Z,4.70
2022-10-15T20:38:10.524Z,4.92
2022-10-15T20:40:42.424Z,4.22
2022-10-15T20:43:14.402Z,4.47
2022-10-15T20:45:47.046Z,4.35
2022-10-15T20:48:22.407Z,3.40
2022-10-15T20:50:55.988Z,4.30
2022-10-15T20:53:30.144Z,4.07
2022-10-15T20:56:02.402Z,4.33
2022-10-15T20:58:34.471Z,3.37
2022-10-15T21:01:08.013Z,3.80
2022-10-15T21:03:40.007Z,5.85
2022-10-15T21:06:12.070Z,4.95
2022-10-15T21:08:44.062Z,7.75
2022-10-15T21:11:16.693Z,5.78
2022-10-15T21:13:49.033Z,5.47
2022-10-15T21:16:24.571Z,4.42
2022-10-15T21:18:55.734Z,5.47
2022-10-15T21:21:28.847Z,7.10
2022-10-15T21:24:00.844Z,3.33
2022-10-15T21:26:32.734Z,3.72
2022-10-15T21:29:05.229Z,3.10
2022-10-15T21:31:38.785Z,3.83
2022-10-15T21:34:10.832Z,3.25
2022-10-15T21:36:43.044Z,2.90
2022-10-15T21:39:14.941Z,4.62
2022-10-15T21:41:48.337Z,3.35
2022-10-15T21:44:20.286Z,3.35
2022-10-15T21:46:52.490Z,3.10
2022-10-15T21:49:24.622Z,3.22
2022-10-15T21:51:56.522Z,3.10
2022-10-15T21:54:28.480Z,2.83
2022-10-15T21:57:00.515Z,3.40
2022-10-15T21:59:32.712Z,5.00
2022-10-15T22:02:04.847Z,3.60
2022-10-15T22:04:37.083Z,2.67
2022-10-15T22:07:09.836Z,2.72
2022-10-15T22:09:41.798Z,3.50
2022-10-15T22:12:15.591Z,3.25
2022-10-15T22:14:47.411Z,3.47
2022-10-15T22:17:20.188Z,3.02
2022-10-15T22:19:52.355Z,3.02
2022-10-15T22:22:24.877Z,3.22
2022-10-15T22:24:58.489Z,3.12
2022-10-15T22:27:30.486Z,3.80
2022-10-15T22:30:02.702Z,3.62
2022-10-15T22:32:34.627Z,3.20
2022-10-15T22:35:06.746Z,2.52
2022-10-15T22:37:38.992Z,3.22
2022-10-15T22:40:12.480Z,2.98
2022-10-15T22:42:46.573Z,3.33
2022-10-15T22:45:19.117Z,2.95
2022-10-15T22:47:51.104Z,4.53
2022-10-15T22:50:23.253Z,5.72
2022-10-15T22:52:55.298Z,4.67
2022-10-15T22:55:28.792Z,3.57
2022-10-15T22:58:00.803Z,3.47
2022-10-15T23:00:32.834Z,3.30
2022-10-15T23:03:04.854Z,2.92
2022-10-15T23:05:53.679Z,3.17
2022-10-15T23:08:25.594Z,4.60
2022-10-15T23:10:57.527Z,4.17
2022-10-15T23:13:29.490Z,3.55
2022-10-15T23:16:08.550Z,3.12
2022-10-15T23:18:41.181Z,3.08
2022-10-15T23:21:16.234Z,3.40
2022-10-15T23:23:48.507Z,3.65
2022-10-15T23:26:20.695Z,3.27
2022-10-15T23:28:55.741Z,3.20
2022-10-15T23:31:30.169Z,2.90
2022-10-15T23:34:03.733Z,2.83
2022-10-15T23:36:35.723Z,3.17
2022-10-15T23:39:08.147Z,2.87
2022-10-15T23:41:40.049Z,3.20
2022-10-15T23:44:12.451Z,3.05
2022-10-15T23:46:44.427Z,3.85
2022-10-15T23:49:16.425Z,2.95
2022-10-15T23:51:48.620Z,3.67
2022-10-15T23:54:20.688Z,3.42
2022-10-15T23:56:53.059Z,3.47
2022-10-15T23:59:24.978Z,3.80
